createdAt,value
2022-09-01T00:02:09.160Z,1.10
2022-09-01T00:04:39.799Z,1.00
2022-09-01T00:07:09.954Z,1.17
2022-09-01T00:09:38.039Z,0.93
2022-09-01T00:12:08.004Z,0.95
2022-09-01T00:14:40.973Z,0.80
2022-09-01T00:17:12.395Z,0.90
2022-09-01T00:19:40.584Z,1.05
2022-09-01T00:22:09.170Z,0.82
2022-09-01T00:24:37.064Z,0.98
2022-09-01T00:27:04.800Z,0.80
2022-09-01T00:29:32.313Z,0.65
2022-09-01T00:31:59.868Z,0.80
2022-09-01T00:34:27.421Z,0.90
2022-09-01T00:36:54.938Z,0.75
2022-09-01T00:39:22.723Z,0.70
2022-09-01T00:41:51.261Z,1.05
2022-09-01T00:44:24.743Z,0.85
2022-09-01T00:46:54.962Z,0.90
2022-09-01T00:49:41.910Z,0.85
2022-09-01T00:52:17.659Z,0.80
2022-09-01T00:54:48.907Z,0.80
2022-09-01T00:57:16.867Z,0.80
2022-09-01T00:59:54.198Z,0.90
2022-09-01T01:02:22.889Z,0.90
2022-09-01T01:04:52.733Z,0.80
2022-09-01T01:07:23.553Z,0.70
2022-09-01T01:09:52.326Z,1.00
2022-09-01T01:12:21.323Z,0.80
2022-09-01T01:14:50.978Z,0.70
2022-09-01T01:17:20.996Z,0.70
2022-09-01T01:20:11.572Z,0.82
2022-09-01T01:23:06.499Z,0.90
2022-09-01T01:25:39.240Z,1.90
2022-09-01T01:28:06.686Z,1.58
2022-09-01T01:30:37.078Z,0.80
2022-09-01T01:33:05.490Z,1.15
2022-09-01T01:35:33.734Z,1.33
2022-09-01T01:38:02.569Z,1.00
2022-09-01T01:40:31.301Z,0.90
2022-09-01T01:43:01.235Z,1.17
2022-09-01T01:45:29.327Z,1.02
2022-09-01T01:47:57.124Z,1.52
2022-09-01T01:50:29.874Z,1.00
2022-09-01T01:53:02.234Z,1.15
2022-09-01T01:55:31.069Z,1.10
2022-09-01T01:58:00.192Z,0.80
2022-09-01T02:00:34.535Z,0.90
2022-09-01T02:03:02.236Z,1.38
2022-09-01T02:05:33.737Z,1.13
2022-09-01T02:08:05.586Z,0.98
2022-09-01T02:10:36.360Z,1.00
2022-09-01T02:13:07.098Z,1.00
2022-09-01T02:15:43.191Z,1.10
2022-09-01T02:18:18.126Z,1.33
2022-09-01T02:20:49.335Z,1.10
2022-09-01T02:23:20.190Z,1.20
2022-09-01T02:26:14.091Z,1.60
2022-09-01T02:28:42.474Z,1.45
2022-09-01T02:31:12.280Z,2.03
2022-09-01T02:33:45.563Z,0.98
2022-09-01T02:36:17.806Z,0.90
2022-09-01T02:41:14.736Z,1.05
2022-09-01T02:43:43.412Z,2.22
2022-09-01T02:46:11.898Z,1.00
2022-09-01T02:48:46.134Z,0.90
2022-09-01T02:51:17.418Z,1.50
2022-09-01T02:53:46.657Z,2.28
2022-09-01T02:56:15.332Z,1.00
2022-09-01T02:58:46.773Z,1.15
2022-09-01T03:01:20.445Z,0.95
2022-09-01T03:03:49.995Z,1.00
2022-09-01T03:06:19.296Z,1.08
2022-09-01T03:08:47.376Z,0.90
2022-09-01T03:11:15.296Z,0.95
2022-09-01T03:13:43.753Z,1.15
2022-09-01T03:16:11.689Z,1.08
2022-09-01T03:18:40.329Z,1.00
2022-09-01T03:21:09.543Z,1.00
2022-09-01T03:23:37.959Z,0.98
2022-09-01T03:26:05.816Z,1.38
2022-09-01T03:28:33.322Z,1.15
2022-09-01T03:31:00.860Z,1.00
2022-09-01T03:33:29.711Z,1.00
2022-09-01T03:35:58.060Z,1.50
2022-09-01T03:38:26.574Z,1.02
2022-09-01T03:41:02.094Z,0.82
2022-09-01T03:43:35.514Z,0.90
2022-09-01T03:46:04.615Z,1.52
2022-09-01T03:48:32.813Z,1.00
2022-09-01T03:51:02.544Z,0.95
2022-09-01T03:53:38.101Z,1.45
2022-09-01T03:56:06.349Z,1.00
2022-09-01T03:58:34.194Z,0.80
2022-09-01T04:01:03.066Z,1.00
2022-09-01T04:03:34.553Z,0.95
2022-09-01T04:06:04.285Z,0.80
2022-09-01T04:08:32.562Z,1.10
2022-09-01T04:11:03.869Z,1.40
2022-09-01T04:13:40.947Z,1.10
2022-09-01T04:16:37.568Z,1.02
2022-09-01T04:19:15.432Z,0.88
2022-09-01T04:21:45.899Z,1.40
2022-09-01T04:24:15.601Z,0.95
2022-09-01T04:26:45.987Z,1.10
2022-09-01T04:29:13.775Z,1.00
2022-09-01T04:31:42.467Z,0.90
2022-09-01T04:34:13.219Z,1.00
2022-09-01T04:36:45.890Z,1.00
2022-09-01T04:39:15.906Z,1.10
2022-09-01T04:41:46.853Z,1.15
2022-09-01T04:44:16.719Z,0.98
2022-09-01T04:46:46.454Z,0.75
2022-09-01T04:49:19.316Z,1.00
2022-09-01T04:51:53.330Z,0.93
2022-09-01T04:54:24.559Z,1.13
2022-09-01T04:56:54.995Z,1.02
2022-09-01T04:59:24.728Z,1.40
2022-09-01T05:01:54.889Z,1.40
2022-09-01T05:04:27.341Z,0.93
2022-09-01T05:06:59.867Z,0.95
2022-09-01T05:09:30.920Z,0.93
2022-09-01T05:12:01.621Z,1.40
2022-09-01T05:14:29.197Z,1.42
2022-09-01T05:17:00.229Z,1.17
2022-09-01T05:19:29.945Z,1.10
2022-09-01T05:21:58.214Z,1.15
2022-09-01T05:24:38.560Z,1.20
2022-09-01T05:27:10.485Z,1.20
2022-09-01T05:29:39.568Z,0.82
2022-09-01T05:32:10.170Z,1.00
2022-09-01T05:34:38.860Z,1.38
2022-09-01T05:37:08.511Z,1.08
2022-09-01T05:39:38.401Z,1.30
2022-09-01T05:42:08.091Z,1.20
2022-09-01T05:44:36.819Z,1.33
2022-09-01T05:47:05.439Z,1.00
2022-09-01T05:49:33.422Z,1.17
2022-09-01T05:52:01.247Z,1.08
2022-09-01T05:54:29.129Z,1.13
2022-09-01T05:57:12.762Z,1.60
2022-09-01T05:59:46.920Z,1.02
2022-09-01T06:02:15.289Z,0.98
2022-09-01T06:04:44.182Z,0.82
2022-09-01T06:07:16.710Z,1.00
2022-09-01T06:09:49.277Z,0.90
2022-09-01T06:12:23.455Z,0.80
2022-09-01T06:14:53.087Z,1.20
2022-09-01T06:17:24.934Z,0.93
2022-09-01T06:22:26.200Z,0.75
2022-09-01T06:24:59.522Z,1.00
2022-09-01T06:27:29.972Z,1.23
2022-09-01T06:29:58.205Z,1.20
2022-09-01T06:32:27.086Z,1.10
2022-09-01T06:34:57.989Z,0.93
2022-09-01T06:37:25.807Z,0.98
2022-09-01T06:39:53.554Z,0.95
2022-09-01T06:42:23.167Z,0.82
2022-09-01T06:44:50.857Z,0.80
2022-09-01T06:47:19.401Z,0.90
2022-09-01T06:49:46.958Z,0.50
2022-09-01T06:52:16.119Z,3.45
2022-09-01T06:54:44.216Z,0.80
2022-09-01T06:59:59.537Z,1.17
2022-09-01T07:02:27.753Z,0.80
2022-09-01T07:04:56.000Z,0.75
2022-09-01T07:13:07.368Z,0.63
2022-09-01T07:26:35.752Z,0.55
2022-09-01T07:29:07.045Z,0.98
2022-09-01T07:34:38.772Z,0.80
2022-09-01T07:39:55.445Z,0.82
2022-09-01T07:42:56.128Z,1.02
2022-09-01T07:45:28.816Z,0.60
2022-09-01T07:48:03.635Z,0.50
2022-09-01T07:51:33.973Z,0.70
2022-09-01T07:53:31.416Z,0.70
2022-09-01T07:56:01.529Z,0.60
2022-09-01T07:58:30.274Z,0.98
2022-09-01T08:01:00.132Z,0.70
2022-09-01T08:03:27.684Z,0.68
2022-09-01T08:05:57.849Z,0.82
2022-09-01T08:08:29.050Z,0.47
2022-09-01T08:11:04.914Z,1.10
2022-09-01T08:13:41.155Z,0.50
2022-09-01T08:16:18.719Z,0.52
2022-09-01T08:18:48.562Z,0.50
2022-09-01T08:21:18.973Z,0.60
2022-09-01T08:23:47.812Z,0.38
2022-09-01T08:26:18.685Z,0.70
2022-09-01T08:28:54.362Z,0.60
2022-09-01T08:31:23.585Z,0.50
2022-09-01T08:33:52.280Z,0.50
2022-09-01T08:36:24.037Z,0.98
2022-09-01T08:38:54.065Z,0.40
2022-09-01T08:41:46.872Z,0.57
2022-09-01T08:44:30.103Z,0.40
2022-09-01T08:47:07.056Z,0.40
2022-09-01T08:49:44.645Z,0.40
2022-09-01T08:52:25.499Z,0.50
2022-09-01T08:54:56.630Z,0.35
2022-09-01T08:57:45.872Z,0.30
2022-09-01T09:00:17.615Z,0.43
2022-09-01T09:03:18.925Z,0.50
2022-09-01T09:06:11.048Z,0.50
2022-09-01T09:09:00.960Z,0.30
2022-09-01T09:11:36.786Z,0.50
2022-09-01T09:14:11.318Z,0.38
2022-09-01T09:16:46.921Z,0.40
2022-09-01T09:19:36.830Z,0.30
2022-09-01T09:22:13.767Z,0.30
2022-09-01T09:24:50.091Z,0.30
2022-09-01T09:27:22.046Z,0.30
2022-09-01T09:29:58.136Z,0.40
2022-09-01T09:33:11.784Z,0.40
2022-09-01T09:35:38.948Z,0.30
2022-09-01T09:38:21.765Z,0.40
2022-09-01T09:41:17.702Z,0.35
2022-09-01T09:43:58.428Z,0.35
2022-09-01T09:46:32.418Z,0.40
2022-09-01T09:49:14.748Z,0.35
2022-09-01T09:51:48.457Z,0.50
2022-09-01T09:54:20.715Z,0.30
2022-09-01T09:56:49.686Z,0.35
2022-09-01T09:59:34.199Z,0.50
2022-09-01T10:02:32.684Z,0.40
2022-09-01T10:05:02.881Z,0.30
2022-09-01T10:07:37.267Z,0.88
2022-09-01T10:10:27.336Z,0.40
2022-09-01T10:12:56.699Z,0.40
2022-09-01T10:15:30.124Z,0.35
2022-09-01T10:18:28.349Z,0.30
2022-09-01T10:21:01.738Z,0.30
2022-09-01T10:23:32.375Z,0.20
2022-09-01T10:26:09.131Z,0.40
2022-09-01T10:28:49.555Z,0.20
2022-09-01T10:31:18.989Z,0.30
2022-09-01T10:33:47.260Z,0.80
2022-09-01T10:36:16.882Z,0.43
2022-09-01T10:38:54.349Z,0.30
2022-09-01T10:41:43.596Z,0.22
2022-09-01T10:44:21.893Z,0.30
2022-09-01T10:46:51.582Z,0.30
2022-09-01T10:49:29.777Z,0.30
2022-09-01T10:52:03.664Z,0.28
2022-09-01T10:54:50.843Z,0.30
2022-09-01T10:57:27.840Z,0.40
2022-09-01T10:59:58.275Z,0.28
2022-09-01T11:02:27.999Z,0.20
2022-09-01T11:04:56.135Z,0.40
2022-09-01T11:07:29.712Z,0.32
2022-09-01T11:10:52.821Z,0.32
2022-09-01T11:13:38.958Z,0.25
2022-09-01T11:16:51.661Z,0.30
2022-09-01T11:19:19.194Z,0.20
2022-09-01T11:21:48.300Z,0.55
2022-09-01T11:24:41.237Z,0.30
2022-09-01T11:27:34.284Z,0.40
2022-09-01T11:32:42.589Z,0.20
2022-09-01T11:35:21.182Z,0.40
2022-09-01T11:37:50.316Z,0.40
2022-09-01T11:40:33.735Z,0.75
2022-09-01T11:43:12.543Z,0.20
2022-09-01T11:45:51.998Z,0.20
2022-09-01T11:48:19.690Z,0.20
2022-09-01T11:50:59.603Z,0.28
2022-09-01T11:53:27.801Z,0.20
2022-09-01T11:55:57.256Z,0.30
2022-09-01T11:58:27.741Z,0.22
2022-09-01T12:00:57.481Z,0.30
2022-09-01T12:03:31.150Z,0.22
2022-09-01T12:06:04.069Z,0.30
2022-09-01T12:08:36.428Z,0.30
2022-09-01T12:11:13.454Z,0.20
2022-09-01T12:13:55.153Z,0.40
2022-09-01T12:18:53.242Z,0.10
2022-09-01T12:21:32.079Z,0.28
2022-09-01T12:24:19.139Z,0.45
2022-09-01T12:26:48.256Z,0.65
2022-09-01T12:29:17.353Z,0.10
2022-09-01T12:31:48.269Z,0.35
2022-09-01T12:34:34.275Z,0.20
2022-09-01T12:37:07.631Z,0.47
2022-09-01T12:39:57.333Z,0.28
2022-09-01T12:42:40.903Z,0.38
2022-09-01T12:45:13.080Z,0.38
2022-09-01T12:47:48.016Z,0.57
2022-09-01T12:50:17.051Z,0.40
2022-09-01T12:52:54.123Z,0.20
2022-09-01T12:58:12.743Z,0.30
2022-09-01T13:01:32.660Z,0.20
2022-09-01T13:04:13.582Z,0.22
2022-09-01T13:06:41.843Z,0.20
2022-09-01T13:09:10.263Z,0.13
2022-09-01T13:14:25.986Z,0.32
2022-09-01T13:16:53.716Z,0.40
2022-09-01T13:19:27.772Z,0.50
2022-09-01T13:21:57.603Z,0.50
2022-09-01T13:24:29.341Z,0.30
2022-09-01T13:29:46.533Z,0.40
2022-09-01T13:32:18.997Z,0.43
2022-09-01T13:34:49.225Z,0.20
2022-09-01T13:37:18.606Z,0.52
2022-09-01T13:39:47.054Z,0.20
2022-09-01T13:42:15.985Z,0.20
2022-09-01T13:44:44.296Z,0.30
2022-09-01T13:50:18.726Z,0.30
2022-09-01T13:52:55.121Z,0.30
2022-09-01T13:55:30.494Z,0.30
2022-09-01T13:57:59.249Z,0.20
2022-09-01T14:00:33.658Z,0.30
2022-09-01T14:03:07.470Z,0.20
2022-09-01T14:05:38.025Z,0.30
2022-09-01T14:08:07.016Z,0.25
2022-09-01T14:10:40.079Z,0.20
2022-09-01T14:13:07.547Z,0.60
2022-09-01T14:15:35.865Z,0.50
2022-09-01T14:18:04.207Z,0.38
2022-09-01T14:20:39.498Z,0.40
2022-09-01T14:23:08.608Z,0.20
2022-09-01T14:25:37.679Z,0.35
2022-09-01T14:28:05.904Z,0.40
2022-09-01T14:30:34.192Z,0.35
2022-09-01T14:33:03.786Z,0.30
2022-09-01T14:35:33.280Z,0.30
2022-09-01T14:38:02.713Z,0.30
2022-09-01T14:40:30.304Z,0.30
2022-09-01T14:42:57.854Z,0.40
2022-09-01T14:45:28.630Z,0.40
2022-09-01T14:48:00.781Z,0.22
2022-09-01T14:50:32.604Z,0.40
2022-09-01T14:53:02.732Z,0.50
2022-09-01T14:55:32.801Z,0.28
2022-09-01T14:58:00.903Z,0.40
2022-09-01T15:00:30.188Z,0.30
2022-09-01T15:02:58.030Z,0.32
2022-09-01T15:05:26.184Z,0.38
2022-09-01T15:07:54.776Z,0.20
2022-09-01T15:10:25.797Z,0.40
2022-09-01T15:13:02.121Z,0.30
2022-09-01T15:15:32.223Z,0.43
2022-09-01T15:18:01.374Z,0.40
2022-09-01T15:20:48.670Z,0.30
2022-09-01T15:23:23.147Z,0.50
2022-09-01T15:25:53.685Z,0.28
2022-09-01T15:28:22.670Z,0.40
2022-09-01T15:30:51.074Z,0.40
2022-09-01T15:33:22.180Z,0.40
2022-09-01T15:35:49.712Z,0.17
2022-09-01T15:38:18.193Z,0.30
2022-09-01T15:40:57.714Z,0.32
2022-09-01T15:43:26.849Z,0.32
2022-09-01T15:45:54.459Z,0.30
2022-09-01T15:48:21.957Z,0.30
2022-09-01T15:50:49.921Z,0.30
2022-09-01T15:53:18.954Z,0.30
2022-09-01T15:55:49.337Z,0.32
2022-09-01T15:58:19.387Z,0.20
2022-09-01T16:00:47.470Z,0.30
2022-09-01T16:03:15.003Z,0.35
2022-09-01T16:05:42.707Z,0.52
2022-09-01T16:08:11.615Z,0.40
2022-09-01T16:10:42.226Z,0.30
2022-09-01T16:13:10.793Z,0.30
2022-09-01T16:15:47.480Z,0.30
2022-09-01T16:18:31.687Z,0.28
2022-09-01T16:21:15.755Z,0.43
2022-09-01T16:23:48.810Z,0.60
2022-09-01T16:26:18.579Z,0.82
2022-09-01T16:28:49.429Z,0.50
2022-09-01T16:31:23.846Z,0.32
2022-09-01T16:33:56.006Z,0.50
2022-09-01T16:36:41.525Z,0.20
2022-09-01T16:39:40.625Z,0.38
2022-09-01T16:42:49.101Z,0.30
2022-09-01T16:45:45.577Z,0.63
2022-09-01T16:48:47.047Z,0.50
2022-09-01T16:51:47.151Z,0.40
2022-09-01T16:54:20.706Z,0.30
2022-09-01T16:57:09.077Z,0.40
2022-09-01T16:59:56.283Z,0.30
2022-09-01T17:02:39.713Z,0.52
2022-09-01T17:05:45.928Z,0.40
2022-09-01T17:08:27.268Z,0.40
2022-09-01T17:10:59.610Z,0.50
2022-09-01T17:13:38.626Z,0.40
2022-09-01T17:16:12.838Z,0.40
2022-09-01T17:18:58.009Z,0.30
2022-09-01T17:21:41.733Z,0.50
2022-09-01T17:24:22.668Z,0.30
2022-09-01T17:26:51.158Z,0.30
2022-09-01T17:29:24.565Z,0.38
2022-09-01T17:32:16.247Z,0.30
2022-09-01T17:35:11.195Z,0.65
2022-09-01T17:38:14.060Z,0.30
2022-09-01T17:41:24.094Z,0.20
2022-09-01T17:44:16.598Z,0.40
2022-09-01T17:46:52.357Z,0.35
2022-09-01T17:49:54.041Z,0.32
2022-09-01T17:52:29.468Z,0.32
2022-09-01T17:55:03.604Z,0.30
2022-09-01T17:57:45.578Z,0.68
2022-09-01T18:00:24.247Z,0.30
2022-09-01T18:03:18.632Z,0.50
2022-09-01T18:06:04.830Z,0.40
2022-09-01T18:08:38.673Z,0.38
2022-09-01T18:11:12.580Z,0.30
2022-09-01T18:13:52.785Z,0.60
2022-09-01T18:16:25.746Z,0.40
2022-09-01T18:18:54.400Z,0.30
2022-09-01T18:21:26.105Z,0.30
2022-09-01T18:24:03.327Z,0.40
2022-09-01T18:26:33.348Z,0.40
2022-09-01T18:29:02.169Z,0.30
2022-09-01T18:31:35.870Z,0.32
2022-09-01T18:34:25.022Z,0.50
2022-09-01T18:37:06.996Z,0.60
2022-09-01T18:40:19.448Z,0.40
2022-09-01T18:43:24.722Z,0.60
2022-09-01T18:46:04.248Z,0.40
2022-09-01T18:48:49.946Z,0.70
2022-09-01T18:51:32.591Z,0.40
2022-09-01T18:54:06.144Z,0.40
2022-09-01T18:56:48.511Z,0.40
2022-09-01T18:59:50.974Z,0.57
2022-09-01T19:02:27.527Z,0.43
2022-09-01T19:05:00.334Z,0.40
2022-09-01T19:07:44.011Z,0.43
2022-09-01T19:10:24.739Z,0.63
2022-09-01T19:12:57.366Z,2.00
2022-09-01T19:15:56.006Z,1.67
2022-09-01T19:18:36.039Z,0.52
2022-09-01T19:21:17.239Z,1.23
2022-09-01T19:23:55.397Z,1.05
2022-09-01T19:26:25.711Z,0.63
2022-09-01T19:28:59.484Z,0.40
2022-09-01T19:31:36.320Z,0.68
2022-09-01T19:34:12.781Z,0.50
2022-09-01T19:36:51.467Z,0.50
2022-09-01T19:39:26.700Z,0.90
2022-09-01T19:42:07.418Z,0.35
2022-09-01T19:44:59.915Z,0.88
2022-09-01T19:48:00.050Z,0.50
2022-09-01T19:50:47.371Z,0.55
2022-09-01T19:53:43.109Z,0.60
2022-09-01T19:56:31.621Z,0.63
2022-09-01T19:59:11.324Z,0.50
2022-09-01T20:01:58.261Z,1.45
2022-09-01T20:04:57.612Z,0.60
2022-09-01T20:07:38.224Z,0.70
2022-09-01T20:10:55.276Z,0.47
2022-09-01T20:13:32.934Z,0.80
2022-09-01T20:16:27.626Z,0.80
2022-09-01T20:19:16.326Z,0.60
2022-09-01T20:21:47.744Z,0.82
2022-09-01T20:24:27.965Z,0.80
2022-09-01T20:27:10.768Z,0.50
2022-09-01T20:29:56.823Z,0.50
2022-09-01T20:32:31.993Z,0.70
2022-09-01T20:35:09.161Z,0.60
2022-09-01T20:37:49.264Z,0.57
2022-09-01T20:40:43.290Z,0.75
2022-09-01T20:43:25.878Z,0.47
2022-09-01T20:45:53.706Z,1.20
2022-09-01T20:48:32.123Z,0.70
2022-09-01T20:51:07.761Z,0.70
2022-09-01T20:54:08.963Z,0.50
2022-09-01T20:56:47.636Z,0.70
2022-09-01T20:59:33.842Z,0.90
2022-09-01T21:02:35.325Z,0.70
2022-09-01T21:05:13.987Z,1.00
2022-09-01T21:08:19.773Z,1.20
2022-09-01T21:11:05.607Z,0.70
2022-09-01T21:13:45.758Z,0.80
2022-09-01T21:16:21.621Z,0.90
2022-09-01T21:18:58.385Z,0.70
2022-09-01T21:21:37.068Z,1.02
2022-09-01T21:24:06.187Z,0.60
2022-09-01T21:26:37.797Z,0.68
2022-09-01T21:29:32.172Z,0.60
2022-09-01T21:32:00.993Z,0.70
2022-09-01T21:34:28.643Z,0.30
2022-09-01T21:36:56.150Z,0.60
2022-09-01T21:39:23.681Z,0.70
2022-09-01T21:41:51.400Z,0.80
2022-09-01T21:44:18.972Z,0.63
2022-09-01T21:46:46.579Z,0.60
2022-09-01T21:49:14.769Z,0.40
2022-09-01T21:51:43.190Z,0.38
2022-09-01T21:54:10.814Z,0.40
2022-09-01T21:56:38.349Z,0.50
2022-09-01T21:59:06.346Z,0.40
2022-09-01T22:01:36.300Z,0.80
2022-09-01T22:04:05.272Z,0.90
2022-09-01T22:06:34.040Z,0.57
2022-09-01T22:09:03.379Z,0.70
2022-09-01T22:11:48.705Z,0.90
2022-09-01T22:14:16.308Z,1.08
2022-09-01T22:16:43.939Z,1.20
2022-09-01T22:19:11.645Z,0.57
2022-09-01T22:21:41.463Z,0.50
2022-09-01T22:24:09.666Z,0.32
2022-09-01T22:26:37.839Z,0.40
2022-09-01T22:29:08.268Z,0.43
2022-09-01T22:31:40.327Z,0.55
2022-09-01T22:34:08.621Z,0.20
2022-09-01T22:36:39.029Z,0.40
2022-09-01T22:39:08.034Z,0.30
2022-09-01T22:41:36.730Z,0.30
2022-09-01T22:44:04.903Z,0.30
2022-09-01T22:46:34.530Z,0.35
2022-09-01T22:49:02.504Z,0.40
2022-09-01T22:51:30.060Z,0.40
2022-09-01T22:53:57.687Z,0.30
2022-09-01T22:56:28.674Z,0.82
2022-09-01T22:58:58.054Z,0.30
2022-09-01T23:01:30.050Z,0.35
2022-09-01T23:03:59.492Z,0.38
2022-09-01T23:06:28.539Z,0.30
2022-09-01T23:09:00.849Z,1.25
2022-09-01T23:11:29.200Z,0.20
2022-09-01T23:13:57.238Z,1.42
2022-09-01T23:16:26.574Z,0.45
2022-09-01T23:18:55.932Z,0.25
2022-09-01T23:21:31.513Z,0.32
2022-09-01T23:24:00.401Z,0.40
2022-09-01T23:26:29.886Z,0.45
2022-09-01T23:28:58.460Z,0.82
2022-09-01T23:31:30.411Z,0.22
2022-09-01T23:33:58.108Z,0.30
2022-09-01T23:36:27.646Z,0.20
2022-09-01T23:38:56.220Z,0.50
2022-09-01T23:41:29.225Z,0.93
2022-09-01T23:43:58.224Z,0.30
2022-09-01T23:46:29.027Z,0.30
2022-09-01T23:48:57.062Z,0.28
2022-09-01T23:51:25.922Z,0.30
2022-09-01T23:53:53.882Z,0.30
2022-09-01T23:56:27.478Z,0.30
2022-09-01T23:58:55.230Z,0.30
